Latest Weather Observations for Bombala AWS

IDN60801

Issued at 4:02 pm EST Tuesday 1 September 2015 (issued every 30 minutes, with the page automatically refreshed every 10 minutes)

About weather observations | Map of weather stations | Latest weather observations for NSW | Other Formats
Station Details ID: 070328 Name: BOMBALA AWS Lat: -37.00 Lon: 149.23 Height: 760.5 m
Data from the previous 72 hours. | See also: Recent months at Bombala AWS
Date/Time
EST
Temp
°C
App
Temp
°C
Dew
Point
Rel
Hum
%
Delta-T
°C
Wind Press
QNH
hPa
Press
MSL
hPa
Rain
since 9 am
mm
Dir
 
Spd
km/h
Gust
km/h
Spd
kts
Gust
kts
01/04:00pm 10.2 6.7 3.5 63 3.1 SSE 11 19 6 10 1013.0 1012.9 0.0
01/03:30pm 11.5 5.4 -3.8 34 6.0 SSW 19 26 10 14 1013.0 1012.9 0.0
01/03:00pm 12.4 7.8 1.7 48 4.8 SW 15 20 8 11 1013.1 1013.0 0.0
01/02:30pm 11.9 7.3 1.8 50 4.5 SW 15 26 8 14 1013.1 1013.0 0.0
01/02:00pm 11.4 5.6 -1.4 41 5.3 SW 19 26 10 14 1013.1 1013.0 0.0
01/01:30pm 10.7 5.8 -0.7 45 4.8 WSW 15 22 8 12 1013.2 1013.1 0.0
01/01:00pm 10.4 5.9 2.0 56 3.7 WSW 15 20 8 11 1013.3 1013.2 0.0
01/12:30pm 10.2 5.8 2.6 59 3.4 W 15 24 8 13 1013.6 1013.5 0.0
01/12:00pm 10.1 6.0 4.3 67 2.7 WSW 15 22 8 12 1014.0 1013.9 0.0
01/11:30am 8.5 4.0 2.3 65 2.7 WSW 15 24 8 13 1014.3 1014.2 0.0
01/11:00am 8.1 3.7 2.6 68 2.4 WSW 15 20 8 11 1014.5 1014.4 0.0
01/10:30am 7.6 2.9 3.3 74 1.9 WSW 17 24 9 13 1014.6 1014.5 0.0
01/10:00am 7.0 3.0 3.1 76 1.7 SW 13 22 7 12 1014.7 1014.6 0.0
01/09:30am 5.8 2.1 2.3 78 1.5 WSW 11 17 6 9 1014.9 1015.8 0.0
01/09:00am 5.3 1.6 2.5 82 1.2 WSW 11 17 6 9 1015.1 1016.0 0.2
01/08:30am 4.6 0.5 2.3 85 1.0 WSW 13 19 7 10 1015.2 1016.1 0.2
01/08:00am 3.7 0.7 1.1 83 1.1 W 6 7 3 4 1015.2 1016.1 0.2
01/07:30am 3.4 0.9 1.6 88 0.7 WSW 4 6 2 3 1015.1 1016.0 0.2
01/07:00am 2.4 -0.2 1.2 92 0.5 W 4 7 2 4 1015.1 1016.0 0.2
01/06:30am 2.4 -0.6 0.9 90 0.6 W 6 9 3 5 1015.0 1015.9 0.2
01/06:00am 1.2 -1.9 0.2 93 0.4 WNW 6 11 3 6 1014.9 1015.8 0.2
01/05:30am -0.2 -3.1 -1.0 94 0.3 WNW 4 9 2 5 1014.7 1015.6 0.2
01/05:00am 0.5 -2.3 -0.6 92 0.4 WNW 4 7 2 4 1014.7 1015.6 0.2
01/04:30am 1.0 -1.8 -0.1 92 0.4 WNW 4 4 2 2 1014.6 1015.5 0.2
01/04:00am 0.7 -3.0 -0.3 93 0.4 WNW 9 13 5 7 1014.6 1015.5 0.2
01/03:30am 0.4 -3.8 -0.7 92 0.4 WNW 11 11 6 6 1014.8 1015.7 0.2
01/03:00am 0.9 -3.6 -0.2 92 0.4 W 13 15 7 8 1014.8 1015.7 0.2
01/02:30am 1.7 -2.4 0.1 89 0.6 W 11 15 6 8 1014.9 1015.8 0.2
01/02:00am 2.6 -2.2 0.3 85 0.9 W 15 24 8 13 1015.4 1016.2 0.2
01/01:30am 3.4 -2.3 0.6 82 1.1 W 20 28 11 15 1015.4 1016.2 0.2
01/01:00am 3.8 -1.2 1.4 84 1.0 W 17 22 9 12 1015.7 1016.6 0.2
01/12:30am 3.9 -1.7 1.4 84 1.0 WSW 20 26 11 14 1015.8 1016.7 0.2
01/12:00am 4.0 -1.9 2.0 87 0.8 WSW 22 30 12 16 1015.8 1016.7 0.2
 
Date/Time
EST
Temp
°C
App
Temp
°C
Dew
Point
Rel
Hum
%
Delta-T
°C
Wind Press
QNH
hPa
Press
MSL
hPa
Rain
since 9 am
mm
Dir
 
Spd
km/h
Gust
km/h
Spd
kts
Gust
kts
31/11:30pm 3.7 -0.8 1.9 88 0.7 WSW 15 20 8 11 1015.8 1016.7 0.2
31/11:00pm 4.1 0.4 2.6 90 0.6 WSW 11 17 6 9 1016.1 1017.0 0.2
31/10:30pm 4.1 -0.8 2.3 88 0.8 WSW 17 26 9 14 1016.2 1017.1 0.2
31/10:00pm 4.1 -1.1 2.3 88 0.8 W 19 22 10 12 1016.2 1017.1 0.2
31/09:30pm 4.2 -0.7 2.1 86 0.9 WSW 17 24 9 13 1016.2 1017.1 0.2
31/09:00pm 4.9 0.6 3.1 88 0.8 WSW 15 22 8 12 1016.4 1017.3 0.2
31/08:30pm 4.7 1.1 3.0 89 0.7 WSW 11 15 6 8 1016.3 1017.2 0.2
31/08:00pm 5.0 0.7 3.0 87 0.9 WSW 15 20 8 11 1016.2 1017.1 0.2
31/07:30pm 5.3 0.5 2.8 84 1.1 SW 17 26 9 14 1016.2 1017.1 0.2
31/07:00pm 5.4 0.3 2.9 84 1.1 SW 19 24 10 13 1016.1 1017.0 0.2
31/06:30pm 5.5 -0.2 2.7 82 1.2 SW 22 33 12 18 1015.9 1016.8 0.2
31/06:00pm 5.5 1.2 3.5 87 0.9 SW 15 20 8 11 1015.8 1016.7 0.2
31/05:30pm 5.8 1.2 3.6 86 1.0 SSW 17 24 9 13 1015.7 1016.6 0.2
31/05:00pm 6.5 1.5 3.5 81 1.3 SW 19 26 10 14 1015.6 1016.5 0.2
31/04:30pm 6.5 1.3 3.8 83 1.2 SW 20 26 11 14 1015.6 1016.5 0.2
31/04:00pm 7.2 2.6 3.8 79 1.5 SW 17 24 9 13 1015.6 1016.5 0.2
31/03:30pm 7.9 2.9 4.7 80 1.5 WSW 20 26 11 14 1015.6 1016.5 0.0
31/03:00pm 8.7 3.3 4.5 75 1.9 WSW 22 30 12 16 1015.5 1016.4 0.0
31/02:30pm 8.0 3.0 4.8 80 1.5 WSW 20 28 11 15 1015.5 1016.4 0.0
31/02:00pm 7.9 3.3 5.5 85 1.1 WSW 19 24 10 13 1015.7 1016.6 0.0
31/01:30pm 8.1 3.6 5.9 86 1.0 WSW 19 24 10 13 1015.8 1016.7 0.0
31/01:00pm 7.1 3.0 4.6 84 1.1 W 15 22 8 12 1016.1 1017.0 0.0
31/12:30pm 7.0 3.0 4.7 85 1.1 W 15 20 8 11 1016.4 1017.3 0.0
31/12:00pm 7.0 2.9 4.5 84 1.1 W 15 20 8 11 1016.8 1017.7 0.0
31/11:30am 7.6 3.0 5.4 86 1.0 WSW 19 22 10 12 1017.0 1017.9 0.0
31/11:00am 6.8 2.0 4.8 87 0.9 W 19 24 10 13 1017.1 1018.0 0.0
31/10:30am 6.0 1.6 4.6 91 0.6 W 17 24 9 13 1017.3 1018.2 0.0
31/10:00am 5.2 0.3 4.3 94 0.4 W 19 26 10 14 1017.5 1018.4 0.0
31/09:30am 4.8 0.7 4.2 96 0.3 W 15 24 8 13 1017.9 1018.9 0.0
31/09:00am 4.4 -0.1 4.0 97 0.2 W 17 24 9 13 1017.9 1018.9 0.0
31/08:30am 4.1 -0.4 4.0 99 0.0 W 17 24 9 13 1017.8 1018.8 0.0
31/08:00am 3.5 -0.4 3.4 99 0.0 W 13 19 7 10 1017.8 1018.8 0.0
31/07:30am 3.2 -0.8 3.1 99 0.0 W 13 17 7 9 1017.7 1018.7 0.0
31/07:00am 2.7 -1.0 2.6 99 0.0 WNW 11 15 6 8 1017.6 1018.6 0.0
31/06:30am 2.4 -1.7 2.3 99 0.0 WNW 13 17 7 9 1017.5 1018.4 0.0
31/06:00am 1.9 -2.3 1.8 99 0.0 W 13 19 7 10 1017.5 1018.4 0.0
31/05:30am 1.8 -1.6 1.7 99 0.0 W 9 13 5 7 1017.5 1018.4 0.0
31/05:00am 0.7 -2.5 0.6 99 0.0 WNW 7 11 4 6 1017.5 1018.4 0.0
31/04:30am -0.1 -2.9 -0.2 99 0.0 N 4 6 2 3 1017.5 1018.4 0.0
31/04:00am -1.2 -4.1 -1.3 99 0.0 WNW 4 7 2 4 1017.6 1018.6 0.0
31/03:30am -1.3 -5.2 -1.4 99 0.0 NW 9 11 5 6 1017.6 1018.6 0.0
31/03:00am -0.6 -3.8 -0.7 99 0.0 NNW 6 7 3 4 1017.9 1018.9 0.0
31/02:30am -0.6 -3.4 -0.7 99 0.0 WNW 4 6 2 3 1018.2 1019.1 0.0
31/02:00am 0.3 -2.8 0.2 99 0.0 NW 6 7 3 4 1018.7 1019.6 0.0
31/01:30am 1.6 -1.5 1.3 98 0.1 W 7 15 4 8 1018.9 1019.9 0.0
31/01:00am 0.8 -1.8 0.7 99 0.0 NW 4 7 2 4 1019.3 1020.3 0.0
31/12:30am 0.4 -2.7 0.3 99 0.0 NW 6 7 3 4 1019.3 1020.3 0.0
31/12:00am 0.9 -2.3 0.8 99 0.0 WNW 7 11 4 6 1019.4 1020.4 0.0
 
Date/Time
EST
Temp
°C
App
Temp
°C
Dew
Point
Rel
Hum
%
Delta-T
°C
Wind Press
QNH
hPa
Press
MSL
hPa
Rain
since 9 am
mm
Dir
 
Spd
km/h
Gust
km/h
Spd
kts
Gust
kts
30/11:30pm 1.6 -0.9 1.5 99 0.0 WSW 4 9 2 5 1019.8 1020.7 0.0
30/11:00pm 1.5 -0.6 1.4 99 0.0 NNW 2 6 1 3 1019.9 1020.9 0.0
30/10:30pm 1.5 -2.0 1.4 99 0.0 W 9 15 5 8 1020.1 1021.1 0.0
30/10:00pm 2.0 -3.3 1.9 99 0.0 W 19 20 10 11 1020.2 1021.2 0.0
30/09:30pm 2.4 -1.3 2.3 99 0.0 WSW 11 15 6 8 1020.7 1021.7 0.0
30/09:00pm 2.3 -1.8 2.2 99 0.0 WSW 13 15 7 8 1020.8 1021.8 0.0
30/08:30pm 3.5 0.0 3.4 99 0.0 SW 11 15 6 8 1020.8 1021.8 0.0
30/08:00pm 3.8 0.0 3.7 99 0.0 SW 13 17 7 9 1020.7 1021.7 0.0
30/07:30pm 3.9 -0.3 3.6 98 0.1 WSW 15 20 8 11 1020.4 1021.4 0.0
30/07:00pm 3.4 -1.7 3.1 98 0.1 WSW 19 24 10 13 1020.2 1021.2 0.0
30/06:30pm 3.9 -1.4 3.2 95 0.3 WSW 20 28 11 15 1020.0 1021.0 0.0
30/06:00pm 3.9 -0.7 3.6 98 0.1 SW 17 22 9 12 1019.9 1020.9 0.0
30/05:30pm 3.9 -0.7 3.6 98 0.1 SW 17 22 9 12 1019.7 1020.6 0.0
30/05:00pm 5.1 0.0 4.2 94 0.4 SW 20 26 11 14 1019.6 1020.5 0.0
30/04:30pm 5.9 1.1 4.7 92 0.5 SW 19 24 10 13 1019.4 1020.4 0.0
30/04:00pm 6.6 0.8 4.4 86 1.0 SW 24 33 13 18 1019.4 1020.4 0.0
30/03:30pm 6.0 -0.5 4.6 91 0.6 SW 28 37 15 20 1019.3 1020.3 0.0
30/03:00pm 6.6 1.0 5.2 91 0.6 WSW 24 32 13 17 1019.2 1020.2 0.0
30/02:30pm 6.4 1.3 5.8 96 0.3 SW 22 28 12 15 1019.3 1020.3 0.0
30/02:00pm 6.2 0.1 4.7 90 0.7 WSW 26 33 14 18 1019.3 1020.3 0.0
30/01:30pm 6.4 1.4 4.6 88 0.8 SW 20 26 11 14 1019.3 1020.3 0.0
30/01:00pm 6.7 0.8 3.9 82 1.3 SW 24 35 13 19 1019.3 1020.3 0.0
30/12:30pm 7.3 1.9 4.4 82 1.3 WSW 22 32 12 17 1019.6 1020.5 0.0
30/12:00pm 6.8 0.1 3.6 80 1.4 SSW 28 35 15 19 1020.0 1021.0 0.0
30/11:30am 7.5 1.1 5.1 85 1.1 SSW 28 35 15 19 1020.1 1021.1 0.0
30/11:00am 6.5 0.4 5.0 90 0.7 SSW 26 33 14 18 1020.4 1021.4 0.0
30/10:30am 6.9 0.4 4.7 86 1.0 SW 28 41 15 22 1020.5 1021.5 0.0
30/10:00am 5.7 -0.1 4.5 92 0.5 SSW 24 32 13 17 1020.7 1021.7 0.0
30/09:30am 5.2 -0.5 4.9 98 0.1 SW 24 32 13 17 1020.7 1021.7 0.0
30/09:00am 6.0 0.1 3.8 86 1.0 SW 24 32 13 17 1020.4 1021.4 0.0
30/08:30am 5.8 -0.3 4.9 94 0.4 SW 26 33 14 18 1020.4 1021.4 0.0
30/08:00am 5.1 1.5 5.0 99 0.0 SSW 13 17 7 9 1020.3 1021.3 0.0
30/07:30am 4.6 1.3 4.5 99 0.0 SW 11 15 6 8 1020.2 1021.2 0.0
30/07:00am 4.3 1.3 4.2 99 0.0 SW 9 15 5 8 1019.8 1020.7 0.0
30/06:30am 4.0 1.5 3.9 99 0.0 SW 6 9 3 5 1019.6 1020.5 0.0
30/06:00am 3.9 0.8 3.8 99 0.0 SSW 9 13 5 7 1019.3 1020.3 0.0
30/05:30am 3.6 0.9 3.5 99 0.0 SW 7 9 4 5 1019.1 1020.1 0.0
30/05:00am 3.4 0.6 3.3 99 0.0 SSW 7 11 4 6 1019.1 1020.1 0.0
30/04:30am 3.5 -0.4 3.4 99 0.0 SW 13 17 7 9 1019.1 1020.1 0.0
30/04:00am 3.8 0.0 3.7 99 0.0 WSW 13 19 7 10 1019.2 1020.2 0.0
30/03:30am 3.6 1.1 3.5 99 0.0 W 6 11 3 6 1019.2 1020.2 0.0
30/03:00am 3.6 0.5 3.5 99 0.0 WSW 9 11 5 6 1019.3 1020.3 0.0
30/02:30am 3.4 0.8 3.3 99 0.0 WSW 6 11 3 6 1019.6 1020.5 0.0
30/02:00am 3.4 0.2 3.3 99 0.0 WSW 9 13 5 7 1019.8 1020.7 0.0
30/01:30am 3.6 -1.0 3.5 99 0.0 SW 17 22 9 12 1020.0 1021.0 0.0
30/01:00am 3.7 -0.5 3.6 99 0.0 SW 15 20 8 11 1020.2 1021.2 0.0
30/12:30am 3.6 -0.7 3.5 99 0.0 SW 15 20 8 11 1020.2 1021.2 0.0
30/12:00am 3.6 -1.4 3.5 99 0.0 SSW 19 22 10 12 1020.0 1021.0 0.0
 
Date/Time
EST
Temp
°C
App
Temp
°C
Dew
Point
Rel
Hum
%
Delta-T
°C
Wind Press
QNH
hPa
Press
MSL
hPa
Rain
since 9 am
mm
Dir
 
Spd
km/h
Gust
km/h
Spd
kts
Gust
kts
29/11:30pm 4.0 -1.5 3.9 99 0.0 SW 22 28 12 15 1019.9 1020.9 0.0
29/11:00pm 4.0 -0.9 3.9 99 0.0 SW 19 26 10 14 1020.0 1021.0 0.0
29/10:30pm 4.1 -1.5 3.7 97 0.2 SW 22 30 12 16 1020.0 1021.0 0.0
29/10:00pm 3.9 -2.0 3.8 99 0.0 SW 24 30 13 16 1019.8 1020.7 0.0
29/09:30pm 3.7 -0.6 3.4 98 0.1 W 15 20 8 11 1019.9 1020.9 0.0
29/09:00pm 4.0 -0.2 3.6 97 0.2 WSW 15 22 8 12 1020.0 1021.0 0.0
29/08:30pm 4.3 -0.6 4.2 99 0.0 WSW 19 28 10 15 1020.1 1021.1 0.0
29/08:00pm 4.3 -1.2 4.2 99 0.0 WSW 22 28 12 15 1019.9 1020.9 0.0
29/07:30pm 4.2 -0.7 4.1 99 0.0 WSW 19 26 10 14 1020.0 1021.0 0.0
29/07:00pm 4.3 0.6 4.2 99 0.0 WSW 13 20 7 11 1019.9 1020.9 0.0
29/06:30pm 4.1 -1.4 4.0 99 0.0 WSW 22 32 12 17 1019.4 1020.4 0.0
29/06:00pm 4.2 -2.8 4.1 99 0.0 WSW 30 41 16 22 1018.9 1019.9 0.0
29/05:30pm 4.7 -1.8 4.6 99 0.0 W 28 35 15 19 1018.8 1019.8 0.0
29/05:00pm 4.9 -3.0 4.3 96 0.3 W 35 48 19 26 1018.5 1019.4 0.0
29/04:30pm 5.4 -1.3 3.9 90 0.7 W 28 37 15 20 1018.6 1019.5 0.0

Other Formats:

Comma delimited format used in spreadsheet applications
http://www.bom.gov.au/fwo/IDN60801/IDN60801.94929.axf

JavaScript Object Notation format (JSON) in row-major order
http://www.bom.gov.au/fwo/IDN60801/IDN60801.94929.json